TimeEST,TemperatureF,Dew PointF,Humidity,Sea Level PressureIn,VisibilityMPH,Wind Direction,Wind SpeedMPH,Gust SpeedMPH,PrecipitationIn,Events,Conditions,WindDirDegrees,DateUTC
12:54 AM,44.1,28.9,55,30.21,10.0,NNE,9.2,-,N/A,,Overcast,20,2012-12-12 05:54:00
1:54 AM,44.1,27.0,51,30.22,10.0,NNE,8.1,-,N/A,,Overcast,20,2012-12-12 06:54:00
2:54 AM,44.1,26.1,49,30.26,10.0,NNE,8.1,-,N/A,,Overcast,30,2012-12-12 07:54:00
3:54 AM,44.1,27.0,51,30.26,10.0,NNE,8.1,-,N/A,,Overcast,30,2012-12-12 08:54:00
4:54 AM,43.0,27.0,53,30.27,10.0,NNE,9.2,-,N/A,,Overcast,30,2012-12-12 09:54:00
5:54 AM,42.1,27.0,55,30.29,10.0,NNE,9.2,-,N/A,,Overcast,20,2012-12-12 10:54:00
6:54 AM,42.8,26.6,53,30.31,10.0,NNE,9.2,-,N/A,,Overcast,30,2012-12-12 11:54:00
7:54 AM,42.1,27.0,55,30.32,10.0,NNE,9.2,-,N/A,,Mostly Cloudy,20,2012-12-12 12:54:00
8:54 AM,43.0,27.0,53,30.34,10.0,NNE,8.1,-,N/A,,Overcast,30,2012-12-12 13:54:00
9:54 AM,46.0,26.1,46,30.36,10.0,NE,9.2,-,N/A,,Overcast,40,2012-12-12 14:54:00
10:54 AM,46.9,26.1,44,30.35,10.0,NNE,9.2,-,N/A,,Overcast,30,2012-12-12 15:54:00
11:54 AM,48.0,27.0,44,30.35,10.0,NE,12.7,-,N/A,,Overcast,40,2012-12-12 16:54:00
12:54 PM,48.0,25.0,41,30.35,10.0,NE,9.2,-,N/A,,Overcast,50,2012-12-12 17:54:00
1:54 PM,46.9,24.1,41,30.33,10.0,North,-9999.0,-,N/A,,Overcast,0,2012-12-12 18:54:00
2:54 PM,46.9,23.0,39,30.34,10.0,North,-9999.0,-,N/A,,Overcast,0,2012-12-12 19:54:00
3:54 PM,46.0,24.1,42,30.35,10.0,NE,8.1,-,N/A,,Mostly Cloudy,50,2012-12-12 20:54:00
4:54 PM,44.1,24.1,45,30.35,10.0,NE,11.5,-,N/A,,Clear,40,2012-12-12 21:54:00
5:54 PM,43.0,25.0,49,30.35,10.0,NNE,8.1,-,N/A,,Clear,30,2012-12-12 22:54:00
6:54 PM,42.1,26.1,53,30.36,10.0,North,5.8,-,N/A,,Clear,10,2012-12-12 23:54:00
7:54 PM,41.0,26.1,55,30.38,10.0,North,6.9,-,N/A,,Clear,10,2012-12-13 00:54:00
8:54 PM,42.1,25.0,51,30.36,10.0,NNE,10.4,-,N/A,,Clear,20,2012-12-13 01:54:00
9:54 PM,43.0,26.1,51,30.38,10.0,NNE,9.2,-,N/A,,Clear,20,2012-12-13 02:54:00
10:54 PM,42.1,27.0,55,30.37,10.0,NNE,8.1,-,N/A,,Clear,20,2012-12-13 03:54:00
11:54 PM,42.1,27.0,55,30.34,10.0,NNE,11.5,-,N/A,,Clear,30,2012-12-13 04:54:00